Time;durP1;ratioP1;P1;durP2;ratioP2;P2;SDS_P1;SDS_P2;PMS_P1;PMS_P2;Temp;Humidity;BMP_temperature;BMP_pressure;BME280_temperature;BME280_humidity;BME280_pressure;Samples;Min_cycle;Max_cycle;Signal;HPM_P1;HPM_P2
2022/05/11 00:01:13;;;;;;;2.92;2.03;;;19.40;60.30;;;;;;10432644;28;20438;-55
2022/05/11 00:06:14;;;;;;;3.83;2.03;;;19.50;60.50;;;;;;10415188;28;20029;-57
2022/05/11 00:11:15;;;;;;;3.30;1.73;;;19.40;60.60;;;;;;10417263;28;20108;-57
2022/05/11 00:16:16;;;;;;;2.90;1.48;;;19.40;60.60;;;;;;10416812;28;20038;-56
2022/05/11 00:21:17;;;;;;;4.28;1.63;;;19.40;60.70;;;;;;10417272;28;20452;-56
2022/05/11 00:26:18;;;;;;;1.90;1.35;;;19.40;60.70;;;;;;10416774;28;20029;-57
2022/05/11 00:31:19;;;;;;;1.98;1.40;;;19.40;60.80;;;;;;10431687;28;20497;-56
2022/05/11 00:36:20;;;;;;;3.10;1.85;;;19.40;60.80;;;;;;10416209;28;20057;-57
2022/05/11 00:41:21;;;;;;;2.92;1.75;;;19.40;60.70;;;;;;10416137;28;20033;-56
2022/05/11 00:46:46;;;;;;;2.28;1.60;;;19.50;64.50;;;;;;10415768;28;20513;-58
2022/05/11 00:51:51;;;;;;;2.60;1.77;;;19.50;66.10;;;;;;10396044;28;20041;-57
2022/05/11 00:57:00;;;;;;;2.88;1.73;;;19.50;65.60;;;;;;10430522;28;20071;-58
2022/05/11 01:02:06;;;;;;;3.28;2.08;;;19.50;65.70;;;;;;10429949;28;20049;-56
2022/05/11 01:07:13;;;;;;;2.53;1.52;;;19.50;65.50;;;;;;10414018;28;20029;-56
2022/05/11 01:12:17;;;;;;;2.55;1.40;;;19.50;64.80;;;;;;10413558;28;20037;-56
2022/05/11 01:17:19;;;;;;;3.00;1.70;;;19.50;64.30;;;;;;10406278;28;20034;-56
2022/05/11 01:22:39;;;;;;;2.97;1.80;;;19.50;64.30;;;;;;10413674;28;20037;-57
2022/05/11 01:27:44;;;;;;;2.58;1.38;;;19.50;64.30;;;;;;10429415;28;20041;-56
2022/05/11 01:32:48;;;;;;;3.03;1.95;;;19.50;63.30;;;;;;10412476;28;20053;-56
2022/05/11 01:38:34;;;;;;;3.45;2.10;;;19.50;63.20;;;;;;10396494;28;20032;-57
2022/05/11 01:43:38;;;;;;;3.25;2.22;;;19.50;63.30;;;;;;10413648;28;20420;-57
2022/05/11 01:48:39;;;;;;;2.47;1.55;;;19.50;63.10;;;;;;10428753;28;20035;-56
2022/05/11 01:53:40;;;;;;;2.05;1.40;;;19.50;63.00;;;;;;10413433;28;20356;-56
2022/05/11 01:58:41;;;;;;;3.28;1.52;;;19.50;63.00;;;;;;10413416;28;20060;-56
2022/05/11 02:03:42;;;;;;;3.25;1.60;;;19.50;62.80;;;;;;10395242;28;20037;-56
2022/05/11 02:08:44;;;;;;;4.18;1.55;;;19.50;62.60;;;;;;10413230;28;20087;-56
2022/05/11 02:13:45;;;;;;;4.07;2.03;;;19.50;62.60;;;;;;10412084;28;20048;-56
2022/05/11 02:18:45;;;;;;;2.88;1.42;;;19.40;62.70;;;;;;10411513;28;20029;-56
2022/05/11 02:23:50;;;;;;;2.38;1.40;;;19.40;63.20;;;;;;10414154;28;20501;-57
2022/05/11 02:28:51;;;;;;;2.72;1.67;;;19.40;62.60;;;;;;10415718;28;20033;-55
2022/05/11 02:33:52;;;;;;;2.65;1.17;;;19.40;62.50;;;;;;10419713;28;20040;-57
2022/05/11 02:38:53;;;;;;;3.08;1.60;;;19.40;62.50;;;;;;10436455;28;20057;-56
2022/05/11 02:43:53;;;;;;;2.05;1.50;;;19.40;62.60;;;;;;10411493;28;20034;-56
2022/05/11 02:48:54;;;;;;;3.28;1.55;;;19.40;62.50;;;;;;10420625;28;20044;-56
2022/05/11 02:53:54;;;;;;;3.22;1.30;;;19.40;62.50;;;;;;10409086;28;20113;-56
2022/05/11 02:58:55;;;;;;;2.40;1.63;;;19.40;62.50;;;;;;10420044;28;20073;-56
2022/05/11 03:03:57;;;;;;;2.28;1.40;;;19.40;62.50;;;;;;10419514;28;20461;-56
2022/05/11 03:08:58;;;;;;;2.28;1.50;;;19.40;62.50;;;;;;10419693;28;20033;-57
2022/05/11 03:13:58;;;;;;;2.40;1.40;;;19.40;62.40;;;;;;10419691;28;20474;-56
2022/05/11 03:19:01;;;;;;;2.13;1.35;;;19.30;62.40;;;;;;10418173;28;20029;-56
2022/05/11 03:24:03;;;;;;;2.97;1.60;;;19.30;62.40;;;;;;10420244;28;20031;-56
2022/05/11 03:29:05;;;;;;;2.45;1.70;;;19.30;62.40;;;;;;10434064;28;20485;-56
2022/05/11 03:39:28;;;;;;;3.72;1.52;;;19.30;62.40;;;;;;10431782;28;20489;-57
2022/05/11 03:44:28;;;;;;;1.80;1.27;;;19.30;62.30;;;;;;10400587;28;20056;-56
2022/05/11 03:49:29;;;;;;;2.47;1.52;;;19.30;62.20;;;;;;10418405;28;20370;-55
2022/05/11 03:54:30;;;;;;;2.00;1.60;;;19.30;62.20;;;;;;10406130;28;20072;-56
2022/05/11 03:59:31;;;;;;;3.45;1.65;;;19.30;62.20;;;;;;10432855;28;20040;-56
2022/05/11 04:04:32;;;;;;;2.20;1.33;;;19.30;62.10;;;;;;10416394;28;20117;-56
2022/05/11 04:09:32;;;;;;;2.40;1.35;;;19.30;62.20;;;;;;10402885;28;20039;-56
2022/05/11 04:14:33;;;;;;;2.00;1.25;;;19.30;62.40;;;;;;10420579;28;20057;-56
2022/05/11 04:19:36;;;;;;;2.05;1.30;;;19.20;62.40;;;;;;10415028;28;20021;-57
2022/05/11 04:24:36;;;;;;;2.45;1.48;;;19.30;62.40;;;;;;10407505;28;20116;-57
2022/05/11 04:29:38;;;;;;;3.10;1.42;;;19.30;62.40;;;;;;10415344;28;20053;-56
2022/05/11 04:34:40;;;;;;;2.17;1.73;;;19.30;62.30;;;;;;10413080;28;20085;-55
2022/05/11 04:39:41;;;;;;;2.63;1.45;;;19.30;62.30;;;;;;10423902;28;20095;-56
2022/05/11 04:44:42;;;;;;;2.58;1.10;;;19.30;62.30;;;;;;10415791;28;20040;-56
2022/05/11 04:49:43;;;;;;;4.28;1.58;;;19.30;62.40;;;;;;10414728;28;20674;-55
2022/05/11 04:54:50;;;;;;;16.58;2.90;;;19.30;62.70;;;;;;10421979;28;20104;-57
2022/05/11 04:59:51;;;;;;;5.10;2.03;;;19.30;63.30;;;;;;10424755;28;20021;-54
2022/05/11 05:04:52;;;;;;;5.65;2.05;;;19.40;62.90;;;;;;10414875;28;20486;-56
2022/05/11 05:09:52;;;;;;;9.27;3.22;;;19.40;63.10;;;;;;10411017;28;20041;-56
2022/05/11 05:14:53;;;;;;;10.50;2.80;;;19.50;63.80;;;;;;10429899;28;20117;-54
2022/05/11 05:19:54;;;;;;;6.72;2.25;;;19.50;63.90;;;;;;10407212;28;20026;-54
2022/05/11 05:24:54;;;;;;;6.07;1.75;;;19.40;64.50;;;;;;10415565;28;20040;-55
2022/05/11 05:35:18;;;;;;;10.95;3.42;;;19.50;64.50;;;;;;10413790;28;20049;-55
2022/05/11 05:40:18;;;;;;;15.25;3.47;;;19.50;63.90;;;;;;10411657;28;20048;-57
2022/05/11 05:45:20;;;;;;;23.13;4.03;;;19.40;63.90;;;;;;10413348;28;20033;-56
2022/05/11 05:50:20;;;;;;;19.95;3.85;;;19.40;63.90;;;;;;10411009;28;20040;-58
2022/05/11 05:55:21;;;;;;;22.55;3.53;;;19.40;64.20;;;;;;10416800;28;20386;-57
2022/05/11 06:00:22;;;;;;;19.70;4.13;;;19.40;64.30;;;;;;10410351;28;20030;-57
2022/05/11 06:05:23;;;;;;;13.10;3.53;;;19.40;64.60;;;;;;10411457;28;20060;-57
2022/05/11 06:10:25;;;;;;;16.15;3.25;;;19.40;64.70;;;;;;10410951;28;20497;-61
2022/05/11 06:15:26;;;;;;;21.58;3.58;;;19.40;64.40;;;;;;10420858;28;20037;-59
2022/05/11 06:20:27;;;;;;;19.95;4.20;;;19.40;64.30;;;;;;10397745;28;20033;-59
2022/05/11 06:25:28;;;;;;;12.23;2.53;;;19.40;63.90;;;;;;10417455;28;20037;-60
2022/05/11 06:30:29;;;;;;;10.43;2.60;;;19.40;63.80;;;;;;10409652;28;20087;-60
2022/05/11 06:35:30;;;;;;;7.88;2.35;;;19.40;63.80;;;;;;10401291;28;20026;-62
2022/05/11 06:40:31;;;;;;;22.05;3.72;;;19.40;63.60;;;;;;10412168;28;20109;-58
2022/05/11 06:45:33;;;;;;;17.23;3.92;;;19.40;63.60;;;;;;10411065;28;20033;-59
2022/05/11 06:50:33;;;;;;;13.85;3.65;;;19.40;63.80;;;;;;10426534;28;20061;-59
2022/05/11 07:00:55;;;;;;;14.77;3.08;;;19.40;63.30;;;;;;10412497;28;20061;-59
2022/05/11 07:05:56;;;;;;;8.23;2.63;;;19.40;63.30;;;;;;10411906;28;20517;-61
2022/05/11 07:16:18;;;;;;;11.57;2.55;;;19.40;62.90;;;;;;10417806;28;20033;-59
2022/05/11 07:21:18;;;;;;;6.47;2.22;;;19.40;62.40;;;;;;10422063;28;20029;-59
2022/05/11 07:26:19;;;;;;;14.35;2.83;;;19.40;62.50;;;;;;10424861;28;20036;-58
2022/05/11 07:31:20;;;;;;;11.73;2.75;;;19.40;62.00;;;;;;10413459;28;20080;-59
2022/05/11 07:36:21;;;;;;;11.10;2.13;;;19.40;61.00;;;;;;10413755;28;20060;-58
2022/05/11 07:41:22;;;;;;;7.28;1.75;;;19.40;61.20;;;;;;10408104;28;20533;-58
2022/05/11 07:46:22;;;;;;;11.57;2.13;;;19.40;60.80;;;;;;10415546;28;20041;-59
2022/05/11 07:51:23;;;;;;;7.50;1.60;;;19.40;60.70;;;;;;10387757;28;20037;-59
2022/05/11 08:01:43;;;;;;;10.48;1.63;;;19.40;60.90;;;;;;10414220;28;20083;-59
2022/05/11 08:06:43;;;;;;;5.97;1.85;;;19.40;61.10;;;;;;10416651;28;20061;-59
2022/05/11 08:11:45;;;;;;;5.22;2.05;;;19.40;61.00;;;;;;10416562;28;20112;-59
2022/05/11 08:16:51;;;;;;;7.80;1.50;;;19.40;60.90;;;;;;10416517;28;20032;-59
2022/05/11 08:21:54;;;;;;;8.38;1.30;;;19.50;60.90;;;;;;10420835;28;20428;-60
2022/05/11 08:26:55;;;;;;;3.25;1.05;;;19.50;61.10;;;;;;10414725;28;20033;-59
2022/05/11 08:37:15;;;;;;;7.70;2.00;;;19.50;61.10;;;;;;10416198;28;20045;-59
2022/05/11 08:42:16;;;;;;;4.90;1.00;;;19.50;61.00;;;;;;10431500;28;20033;-59
2022/05/11 08:47:47;;;;;;;6.78;1.85;;;19.50;61.00;;;;;;10431406;28;20029;-58
2022/05/11 08:53:06;;;;;;;5.32;1.52;;;19.60;60.90;;;;;;10415399;28;20029;-59
2022/05/11 08:58:57;;;;;;;4.55;1.15;;;19.60;61.00;;;;;;10414526;28;20036;-60
2022/05/11 09:04:03;;;;;;;8.32;1.77;;;19.60;60.80;;;;;;10413561;28;20497;-59
2022/05/11 09:09:05;;;;;;;3.75;1.30;;;19.60;61.00;;;;;;10413872;28;20377;-59
2022/05/11 09:14:06;;;;;;;3.97;1.60;;;19.60;60.80;;;;;;10414526;28;20041;-59
2022/05/11 09:19:25;;;;;;;2.25;1.15;;;19.60;60.70;;;;;;10414846;28;20108;-59
2022/05/11 09:24:31;;;;;;;2.78;1.25;;;19.60;60.70;;;;;;10414690;28;20232;-59
2022/05/11 09:29:42;;;;;;;4.35;1.30;;;19.60;60.80;;;;;;10412646;28;20714;-59
2022/05/11 09:34:43;;;;;;;3.42;1.30;;;19.70;60.90;;;;;;10429415;28;20532;-57
2022/05/11 09:40:03;;;;;;;3.95;1.08;;;19.70;60.80;;;;;;10412359;28;20029;-59
2022/05/11 09:45:04;;;;;;;4.50;1.13;;;19.70;60.80;;;;;;10413841;28;20175;-59
2022/05/11 09:50:21;;;;;;;3.22;1.13;;;19.70;60.80;;;;;;10388610;28;20033;-59
2022/05/11 09:55:30;;;;;;;5.35;1.50;;;19.70;60.80;;;;;;10422544;28;20034;-59
2022/05/11 10:00:37;;;;;;;;;;;19.70;60.70;;;;;;10428367;28;20037;-59
2022/05/11 10:05:47;;;;;;;4.47;1.20;;;19.70;60.30;;;;;;10410155;28;19913;-59
2022/05/11 10:11:10;;;;;;;11.48;1.65;;;19.80;60.60;;;;;;10407249;28;20107;-58
2022/05/11 10:22:02;;;;;;;7.07;1.67;;;19.80;59.80;;;;;;10409401;28;20449;-58
2022/05/11 10:27:20;;;;;;;6.28;1.50;;;19.80;58.90;;;;;;10412768;28;20031;-57
2022/05/11 10:32:28;;;;;;;6.13;1.10;;;19.80;57.40;;;;;;10400249;28;20046;-58
2022/05/11 10:37:47;;;;;;;2.65;1.10;;;19.80;56.90;;;;;;10411491;28;20064;-59
2022/05/11 10:43:17;;;;;;;6.55;1.00;;;19.80;56.60;;;;;;10419338;28;20029;-60
2022/05/11 10:48:45;;;;;;;2.92;0.95;;;19.90;56.40;;;;;;10413512;28;20029;-58
2022/05/11 10:54:05;;;;;;;9.52;2.08;;;19.90;56.00;;;;;;10413877;28;20033;-58
2022/05/11 10:59:41;;;;;;;;;;;19.90;55.40;;;;;;10416054;28;20109;-58
2022/05/11 11:04:59;;;;;;;3.75;0.90;;;19.90;54.80;;;;;;10419224;28;19909;-59
2022/05/11 11:10:21;;;;;;;6.47;1.30;;;19.90;54.20;;;;;;10412262;28;20068;-59
2022/05/11 11:15:29;;;;;;;6.47;1.33;;;20.00;54.50;;;;;;10416883;28;20299;-59
2022/05/11 11:20:39;;;;;;;3.38;1.30;;;20.00;54.40;;;;;;10409450;28;20030;-58
2022/05/11 11:25:53;;;;;;;5.30;1.48;;;20.00;54.20;;;;;;10419684;28;20025;-58
2022/05/11 11:31:00;;;;;;;3.17;0.88;;;20.00;53.90;;;;;;10409088;28;20048;-58
2022/05/11 11:36:16;;;;;;;4.35;1.60;;;20.00;53.90;;;;;;10417733;28;20075;-60
2022/05/11 11:41:30;;;;;;;3.90;1.30;;;20.00;53.90;;;;;;10416435;28;20099;-59
2022/05/11 11:46:43;;;;;;;3.22;1.00;;;20.10;53.90;;;;;;10418445;28;20026;-59
2022/05/11 11:52:05;;;;;;;3.53;1.13;;;20.00;53.40;;;;;;10413849;28;20035;-59
2022/05/11 11:57:12;;;;;;;4.25;1.00;;;20.10;53.40;;;;;;10410966;28;20041;-60
2022/05/11 12:02:39;;;;;;;5.68;1.02;;;20.10;53.60;;;;;;10413571;28;20106;-59
2022/05/11 12:18:44;;;;;;;5.35;0.90;;;20.20;54.60;;;;;;10412648;28;20033;-58
2022/05/11 12:23:50;;;;;;;4.95;1.00;;;20.20;54.80;;;;;;10416762;28;20035;-59
2022/05/11 12:29:54;;;;;;;7.35;1.45;;;20.20;55.00;;;;;;10406929;28;20033;-58
2022/05/11 12:34:11;;;;;;;3.72;0.98;;;20.30;55.10;;;;;;10412525;28;20044;-59
2022/05/11 12:39:13;;;;;;;5.22;1.25;;;20.30;55.10;;;;;;10411361;28;20569;-60
2022/05/11 12:44:15;;;;;;;7.32;1.42;;;20.30;55.10;;;;;;10416073;28;20025;-60
2022/05/11 12:49:18;;;;;;;5.05;1.25;;;20.40;55.30;;;;;;10414649;28;20045;-59
2022/05/11 12:54:27;;;;;;;4.05;1.50;;;20.40;55.10;;;;;;10424049;28;20029;-60
2022/05/11 12:59:31;;;;;;;17.55;2.13;;;20.40;55.40;;;;;;10412122;28;20134;-59
2022/05/11 13:04:31;;;;;;;12.38;2.55;;;20.40;56.00;;;;;;10413936;28;20052;-61
2022/05/11 13:09:44;;;;;;;13.95;2.22;;;20.40;55.90;;;;;;10414740;28;20040;-60
2022/05/11 13:14:52;;;;;;;8.15;1.25;;;20.50;56.40;;;;;;10403898;28;20045;-61
2022/05/11 13:20:19;;;;;;;16.50;1.60;;;20.40;56.20;;;;;;10429616;28;20022;-60
2022/05/11 13:25:48;;;;;;;8.85;2.33;;;20.50;56.50;;;;;;10427129;28;20056;-60
2022/05/11 13:30:53;;;;;;;7.30;1.60;;;20.40;56.20;;;;;;10428508;28;20060;-59
2022/05/11 13:36:26;;;;;;;6.10;1.88;;;20.50;55.80;;;;;;10423970;28;20545;-61
2022/05/11 13:41:38;;;;;;;7.22;2.13;;;20.50;55.70;;;;;;10404972;28;20095;-60
2022/05/11 13:52:31;;;;;;;8.93;2.47;;;20.50;55.80;;;;;;10412933;28;20067;-61
2022/05/11 13:57:38;;;;;;;4.65;1.50;;;20.40;55.90;;;;;;10411711;28;20025;-59
2022/05/11 14:02:39;;;;;;;8.65;2.20;;;20.40;56.00;;;;;;10412010;28;20087;-59
2022/05/11 14:07:42;;;;;;;6.05;1.95;;;20.40;55.90;;;;;;10413105;28;20034;-60
2022/05/11 14:12:43;;;;;;;5.55;1.88;;;20.40;55.90;;;;;;10411029;28;20053;-59
2022/05/11 14:17:49;;;;;;;4.05;1.60;;;20.40;55.80;;;;;;10410761;28;20018;-59
2022/05/11 14:22:50;;;;;;;6.45;1.60;;;20.30;55.70;;;;;;10419024;28;20381;-60
2022/05/11 14:27:50;;;;;;;6.68;1.85;;;20.40;55.90;;;;;;10420244;28;20159;-61
2022/05/11 14:32:51;;;;;;;6.55;1.88;;;20.40;55.90;;;;;;10419423;28;20577;-60
2022/05/11 14:37:53;;;;;;;5.78;2.17;;;20.40;56.10;;;;;;10436438;28;20032;-60
2022/05/11 14:42:53;;;;;;;5.28;1.58;;;20.30;56.10;;;;;;10414789;28;20041;-60
2022/05/11 14:47:59;;;;;;;3.75;1.88;;;20.40;56.10;;;;;;10390920;28;20041;-60
2022/05/11 14:53:01;;;;;;;4.78;2.30;;;20.30;56.30;;;;;;10412216;28;20051;-60
2022/05/11 15:03:22;;;;;;;5.53;2.08;;;20.40;57.30;;;;;;10425429;28;20041;-62
2022/05/11 15:08:23;;;;;;;5.35;2.10;;;20.30;57.10;;;;;;10422926;28;20029;-61
2022/05/11 15:13:30;;;;;;;5.07;1.92;;;20.40;57.10;;;;;;10418856;28;20433;-61
2022/05/11 15:18:31;;;;;;;7.53;2.22;;;20.40;57.30;;;;;;10419276;28;20169;-60
2022/05/11 15:23:32;;;;;;;7.13;1.63;;;20.30;57.40;;;;;;10429665;28;20188;-59
2022/05/11 15:28:33;;;;;;;5.55;1.83;;;20.30;58.30;;;;;;10417924;28;20025;-61
2022/05/11 15:33:34;;;;;;;4.05;1.77;;;20.30;57.70;;;;;;10416984;28;20561;-61
2022/05/11 15:38:34;;;;;;;6.70;1.85;;;20.30;57.70;;;;;;10417515;28;20025;-62
2022/05/11 15:43:37;;;;;;;15.48;2.67;;;20.30;57.80;;;;;;10434095;28;20091;-60
2022/05/11 15:48:38;;;;;;;7.00;1.98;;;20.30;58.10;;;;;;10433223;28;20026;-60
2022/05/11 15:53:45;;;;;;;152.52;135.57;;;20.30;57.90;;;;;;10415949;28;20037;-59
2022/05/11 15:58:45;;;;;;;48.35;38.85;;;20.30;57.20;;;;;;10392378;28;20367;-61
2022/05/11 16:03:47;;;;;;;31.58;21.85;;;20.30;57.20;;;;;;10418899;28;20053;-61
2022/05/11 16:08:49;;;;;;;15.68;11.48;;;20.60;55.50;;;;;;10418478;28;20029;-59
2022/05/11 16:13:51;;;;;;;18.30;11.50;;;20.80;54.50;;;;;;10417541;28;20029;-60
2022/05/11 16:24:12;;;;;;;21.90;15.95;;;20.60;56.00;;;;;;10427008;28;20497;-61
2022/05/11 16:29:16;;;;;;;12.68;9.02;;;20.40;56.20;;;;;;10416533;28;20045;-60
2022/05/11 16:34:19;;;;;;;19.17;7.85;;;20.40;55.60;;;;;;10416566;28;20528;-61
2022/05/11 16:39:23;;;;;;;9.85;5.78;;;20.30;55.00;;;;;;10416048;28;20417;-60
2022/05/11 16:44:25;;;;;;;9.75;4.40;;;20.30;55.10;;;;;;10431374;28;20026;-61
2022/05/11 16:49:26;;;;;;;12.93;4.88;;;20.30;54.60;;;;;;10414702;28;20073;-60
2022/05/11 16:54:26;;;;;;;7.20;2.85;;;20.30;54.20;;;;;;10415300;28;20124;-59
2022/05/11 16:59:27;;;;;;;9.23;4.20;;;20.30;53.50;;;;;;10415270;28;20021;-60
2022/05/11 17:04:29;;;;;;;10.23;4.03;;;20.30;54.50;;;;;;10414576;28;20112;-60
2022/05/11 17:09:30;;;;;;;8.82;3.63;;;20.20;54.70;;;;;;10412271;28;20035;-59
2022/05/11 17:14:30;;;;;;;8.32;3.88;;;20.30;54.50;;;;;;10414039;28;20032;-59
2022/05/11 17:19:32;;;;;;;7.38;3.10;;;20.20;54.60;;;;;;10425996;28;20037;-60
2022/05/11 17:24:34;;;;;;;10.52;3.47;;;20.20;54.50;;;;;;10404296;28;20021;-60
2022/05/11 17:29:35;;;;;;;7.65;2.28;;;20.20;54.60;;;;;;10419816;28;20033;-59
2022/05/11 17:34:36;;;;;;;6.60;2.70;;;20.20;54.60;;;;;;10412965;28;20046;-59
2022/05/11 17:39:36;;;;;;;7.60;2.78;;;20.20;54.90;;;;;;10412785;28;20176;-60
2022/05/11 17:44:38;;;;;;;9.57;2.97;;;20.20;55.40;;;;;;10416332;28;20498;-60
2022/05/11 17:49:39;;;;;;;11.88;3.13;;;20.10;55.10;;;;;;10411548;28;20130;-59
2022/05/11 17:54:42;;;;;;;9.50;3.30;;;20.00;54.90;;;;;;10411671;28;20095;-61
2022/05/11 17:59:44;;;;;;;9.98;3.10;;;20.00;54.60;;;;;;10409846;28;20075;-61
2022/05/11 18:04:45;;;;;;;7.18;2.53;;;20.10;55.10;;;;;;10411520;28;20115;-61
2022/05/11 18:09:51;;;;;;;11.80;3.15;;;20.10;54.80;;;;;;10398467;28;20041;-61
2022/05/11 18:14:52;;;;;;;13.07;3.08;;;20.00;54.00;;;;;;10399921;28;20474;-61
2022/05/11 18:19:54;;;;;;;6.50;2.03;;;20.00;53.90;;;;;;10381354;28;20022;-61
2022/05/11 18:24:55;;;;;;;8.30;3.05;;;20.10;54.60;;;;;;10399999;28;20531;-61
2022/05/11 18:29:55;;;;;;;8.35;2.60;;;20.10;54.90;;;;;;10400786;28;20107;-61
2022/05/11 18:34:56;;;;;;;8.07;3.05;;;20.10;55.00;;;;;;10379787;28;20121;-61
2022/05/11 18:39:57;;;;;;;6.65;2.63;;;20.10;54.10;;;;;;10403336;28;20029;-61
2022/05/11 18:45:01;;;;;;;19.55;3.33;;;20.10;54.40;;;;;;10409640;28;20413;-61
2022/05/11 18:50:04;;;;;;;8.50;2.50;;;20.10;54.70;;;;;;10412816;28;20034;-58
2022/05/11 18:55:07;;;;;;;10.27;2.78;;;20.10;55.00;;;;;;10397153;28;20029;-61
2022/05/11 19:00:12;;;;;;;9.55;3.08;;;20.10;55.10;;;;;;10413289;28;20033;-61
2022/05/11 19:05:13;;;;;;;9.30;2.83;;;20.10;55.30;;;;;;10408578;28;20112;-60
2022/05/11 19:10:14;;;;;;;14.18;3.20;;;20.10;55.60;;;;;;10395708;28;20030;-62
2022/05/11 19:15:18;;;;;;;12.07;2.22;;;20.20;55.90;;;;;;10400154;28;20477;-61
2022/05/11 19:20:24;;;;;;;8.63;3.33;;;20.20;56.10;;;;;;10404676;28;20378;-61
2022/05/11 19:25:25;;;;;;;9.60;2.65;;;20.20;56.40;;;;;;10421851;28;20033;-60
2022/05/11 19:30:26;;;;;;;8.98;2.80;;;20.20;56.50;;;;;;10391153;28;20053;-61
2022/05/11 19:35:27;;;;;;;10.38;2.95;;;20.20;56.60;;;;;;10415617;28;20033;-59
2022/05/11 19:40:28;;;;;;;11.40;2.40;;;20.20;56.80;;;;;;10413325;28;20029;-59
2022/05/11 19:45:30;;;;;;;4.93;2.25;;;20.20;56.90;;;;;;10413173;28;20037;-61
2022/05/11 19:50:32;;;;;;;13.63;4.60;;;20.20;56.80;;;;;;10412010;28;20033;-60
2022/05/11 19:55:35;;;;;;;6.75;1.80;;;20.20;56.90;;;;;;10413756;28;20030;-59
2022/05/11 20:00:37;;;;;;;5.25;1.80;;;20.20;56.80;;;;;;10413988;28;20034;-60
2022/05/11 20:05:39;;;;;;;6.32;2.35;;;20.20;56.70;;;;;;10414454;28;20059;-59
2022/05/11 20:10:41;;;;;;;8.80;2.00;;;20.10;56.60;;;;;;10413984;28;20029;-60
2022/05/11 20:15:43;;;;;;;8.40;1.55;;;20.20;56.70;;;;;;10410418;28;20616;-59
2022/05/11 20:20:46;;;;;;;5.57;2.35;;;20.20;56.90;;;;;;10410294;28;20113;-59
2022/05/11 20:25:47;;;;;;;6.72;2.33;;;20.20;56.80;;;;;;10419828;28;20238;-59
2022/05/11 20:30:47;;;;;;;4.38;2.08;;;20.10;56.70;;;;;;10413551;28;20054;-60
2022/05/11 20:35:48;;;;;;;6.15;2.00;;;20.10;56.90;;;;;;10394499;28;20116;-59
2022/05/11 20:40:50;;;;;;;6.40;1.90;;;20.10;57.00;;;;;;10414354;28;20052;-59
2022/05/11 20:45:51;;;;;;;4.97;2.45;;;20.10;57.10;;;;;;10429930;28;20469;-59
2022/05/11 20:50:52;;;;;;;4.53;2.17;;;20.10;57.10;;;;;;10412771;28;20113;-58
2022/05/11 20:55:52;;;;;;;5.97;2.17;;;20.10;57.10;;;;;;10415426;28;20156;-58
2022/05/11 21:00:54;;;;;;;4.95;1.95;;;20.10;57.10;;;;;;10414614;28;20026;-60
2022/05/11 21:05:55;;;;;;;3.80;1.30;;;20.10;57.10;;;;;;10414369;28;20037;-59
2022/05/11 21:10:56;;;;;;;5.22;2.10;;;20.10;57.40;;;;;;10413664;28;20492;-59
2022/05/11 21:15:57;;;;;;;5.07;1.40;;;20.10;57.50;;;;;;10414830;28;20133;-60
2022/05/11 21:20:58;;;;;;;6.07;2.03;;;20.10;57.60;;;;;;10413221;28;20028;-60
2022/05/11 21:25:58;;;;;;;4.00;1.35;;;20.10;57.70;;;;;;10422661;28;20034;-59
2022/05/11 21:30:59;;;;;;;2.78;1.30;;;20.10;58.40;;;;;;10413958;28;20049;-59
2022/05/11 21:36:00;;;;;;;4.03;2.03;;;20.10;57.90;;;;;;10413923;28;20032;-58
2022/05/11 21:41:02;;;;;;;2.35;1.25;;;20.10;58.00;;;;;;10429201;28;20441;-58
2022/05/11 21:46:03;;;;;;;4.05;1.30;;;20.00;58.00;;;;;;10429024;28;20466;-59
2022/05/11 21:51:03;;;;;;;3.38;1.42;;;20.00;58.20;;;;;;10413358;28;20021;-60
2022/05/11 21:56:06;;;;;;;3.65;1.15;;;20.10;58.40;;;;;;10413151;28;20506;-63
2022/05/11 22:01:06;;;;;;;4.43;1.20;;;20.00;59.00;;;;;;10400005;28;20029;-63
2022/05/11 22:06:07;;;;;;;2.70;1.25;;;20.00;58.60;;;;;;10412578;28;20033;-63
2022/05/11 22:11:08;;;;;;;2.45;1.15;;;20.00;58.60;;;;;;10412882;28;20127;-62
2022/05/11 22:16:10;;;;;;;3.80;1.50;;;20.00;58.70;;;;;;10428168;28;20024;-64
2022/05/11 22:21:10;;;;;;;3.15;1.08;;;20.00;58.70;;;;;;10431097;28;20033;-63
2022/05/11 22:26:12;;;;;;;4.03;1.15;;;20.00;58.80;;;;;;10418432;28;20033;-63
2022/05/11 22:31:13;;;;;;;4.10;1.33;;;20.00;58.90;;;;;;10411186;28;20041;-63
2022/05/11 22:36:13;;;;;;;5.55;2.00;;;20.00;58.90;;;;;;10410838;28;20037;-63
2022/05/11 22:41:14;;;;;;;2.92;1.40;;;20.00;58.90;;;;;;10411068;28;20045;-63
2022/05/11 22:46:15;;;;;;;5.80;1.77;;;20.00;59.00;;;;;;10416851;28;20073;-63
2022/05/11 22:51:15;;;;;;;2.92;0.90;;;20.00;59.10;;;;;;10408272;28;20113;-63
2022/05/11 22:56:16;;;;;;;1.85;0.95;;;20.00;59.10;;;;;;10417570;28;20040;-63
2022/05/11 23:01:17;;;;;;;3.05;1.13;;;20.00;59.30;;;;;;10417647;28;20108;-63
2022/05/11 23:06:18;;;;;;;1.90;1.10;;;20.00;59.30;;;;;;10416632;28;20025;-63
2022/05/11 23:11:18;;;;;;;2.45;1.35;;;19.90;59.30;;;;;;10415426;28;20079;-63
2022/05/11 23:16:19;;;;;;;5.38;1.73;;;19.90;59.30;;;;;;10416495;28;20037;-63
2022/05/11 23:21:19;;;;;;;2.25;1.20;;;19.90;59.20;;;;;;10422281;28;20060;-63
2022/05/11 23:26:20;;;;;;;1.75;0.98;;;19.90;59.20;;;;;;10423568;28;20542;-63
2022/05/11 23:31:21;;;;;;;3.63;1.50;;;19.90;59.30;;;;;;10417429;28;20076;-63
2022/05/11 23:36:23;;;;;;;6.38;1.27;;;19.90;59.20;;;;;;10418458;28;20120;-63
2022/05/11 23:41:24;;;;;;;2.97;1.00;;;19.90;59.10;;;;;;10418239;28;20063;-63
2022/05/11 23:46:24;;;;;;;1.70;0.82;;;19.90;59.10;;;;;;10418112;28;20359;-63
2022/05/11 23:51:25;;;;;;;2.22;1.08;;;19.90;59.10;;;;;;10411743;28;20442;-63
2022/05/11 23:56:26;;;;;;;1.98;0.85;;;19.90;59.10;;;;;;10432389;28;20037;-63
